KBRD

Brainerd Lakes Regional Airport

Brainerd, Minnesota, USA
METAR KBRD 211953Z AUTO 34006KT 10SM SCT120 00/M03 A2999 RMK AO2 SLP173 T00001033
Observed Flight Rules
Jan-21 @ 19:53 UTC (37 minutes ago) Visual Flight Rules
Wind Visibility Clouds
340° at 6 knots 10 miles
  • Scattered at 12,000' AGL
Temperatures Readings
Current 0°C / 32°F
Dewpoint -3°C / 27°F
Humidity 80%
Altimeter 29.99" Hg
Pressure 1017.3 hPa
Elevation 372
METAR KBRD 211953Z AUTO 34006KT 10SM SCT120 00/M03 A2999 RMK AO2 SLP173 T00001033
Observed Flight Rules
Jan-21 @ 19:53 UTC
(37 minutes ago)
VFR
Wind Visibility
340° at 6 knots 10 miles
Clouds
  • Scattered at 12,000' AGL
Temperature Dewpoint
0°C / 32°F -3°C / 27°F
Humidity Altimeter Pressure
80% 29.99" Hg 1017.3 hPa